Latest Coastal Weather Observations for Lady Elliot Island

IDQ60701

Issued at 12:31 pm EST Monday 31 August 2015 (issued every 10 minutes, with the page automatically refreshed every 10 minutes)

About coastal observations | Map of coastal stations | Coastal observations for QLD | Marine services | Other Formats
Station Details ID: 039059 Name: LADY ELLIOT ISLAND Lat: -24.11 Lon: 152.72 Height: 3.6 m
Data from the previous 72 hours. | See also: Recent months at Lady Elliot Island
Date/Time
EST
Temp

°C
Wind Pressure Rain
since 9am
mm
Weather Cloud Vis
km
Sea
Height
m
Swell
Dir
 
Speed
knots
Gust
knots
hPa Trend Height
m
Period
s
Dir
31/12:30pm 20.4 WSW 9 14 1016.0 - 0.0 - - - - - - -
31/12:00pm 19.9 WSW 11 18 1016.2 - 0.0 - - - - - - -
31/11:30am 19.7 SW 11 16 1016.6 - 0.0 - - - - - - -
31/11:00am 19.3 SW 12 19 1016.9 - 0.0 - - - - - - -
31/10:30am 19.2 SW 13 18 1017.0 - 0.0 - - - - - - -
31/10:00am 19.1 SSW 13 23 1017.3 - 0.0 - - - - - - -
31/09:30am 19.2 SSW 15 22 1017.2 - 0.0 - - - - - - -
31/09:00am 18.9 SSW 16 25 1017.2 - 0.0 - - - - - - -
31/08:30am 18.5 SSW 16 27 1017.2 - 0.0 - - - - - - -
31/08:29am 18.5 SSW 15 27 1017.2 - 0.0 - - - - - - -
31/08:00am 18.3 SSW 14 22 1017.2 - 0.0 - - - - - - -
31/07:30am 18.3 SSW 14 20 1017.1 - 0.0 - - - - - - -
31/07:00am 18.0 SSW 15 23 1016.8 - 0.0 - - - - - - -
31/06:30am 17.6 SSW 12 17 1016.7 - 0.0 - - - - - - -
31/06:00am 17.3 SSW 13 20 1016.3 - 0.0 - - - - - - -
31/05:30am 17.4 SSW 13 19 1016.1 - 0.0 - - - - - - -
31/05:00am 17.5 SSW 15 22 1015.9 - 0.0 - - - - - - -
31/04:30am 17.5 SSW 16 21 1015.8 - 0.0 - - - - - - -
31/04:00am 17.7 S 14 19 1015.8 - 0.0 - - - - - - -
31/03:30am 17.6 S 14 18 1015.8 - 0.0 - - - - - - -
31/03:00am 18.0 S 15 19 1016.0 - 0.0 - - - - - - -
31/02:30am 18.1 S 15 21 1016.4 - 0.0 - - - - - - -
31/02:00am 18.3 S 14 20 1016.6 - 0.0 - - - - - - -
31/01:30am 18.6 SSW 15 22 1016.6 - 0.0 - - - - - - -
31/01:00am 19.0 S 17 24 1016.8 - 0.0 - - - - - - -
31/12:30am 19.1 S 16 22 1016.8 - 0.0 - - - - - - -
31/12:00am 19.3 S 17 23 1016.7 - 0.0 - - - - - - -
 
Date/Time
EST
Temp

°C
Wind Pressure Rain
since 9am
mm
Weather Cloud Vis
km
Sea
Height
m
Swell
Dir
 
Speed
knots
Gust
knots
hPa Trend Height
m
Period
s
Dir
30/11:30pm 19.5 S 17 23 1016.7 - 0.0 - - - - - - -
30/11:17pm 19.6 SSW 15 22 1016.6 - 0.0 - - - - - - -
30/11:00pm 19.3 SW 8 12 1016.6 - 0.0 - - - - - - -
30/10:30pm 18.9 SW 5 7 1016.7 - 0.0 - - - - - - -
30/10:00pm 18.8 WSW 4 5 1016.7 - 0.0 - - - - - - -
30/09:30pm 18.6 SW 4 5 1016.6 - 0.0 - - - - - - -
30/09:00pm 18.3 WSW 4 5 1016.5 - 0.0 - - - - - - -
30/08:30pm 17.6 WSW 4 5 1016.4 - 0.0 - - - - - - -
30/08:00pm 15.4 WNW 2 4 1016.3 - 0.0 - - - - - - -
30/07:30pm 15.7 CALM 0 0 1016.0 - 0.0 - - - - - - -
30/06:30pm 18.0 CALM 0 0 1015.2 - 0.0 - - - - - - -
30/06:00pm 18.3 CALM 0 0 1015.0 - 0.0 - - - - - - -
30/05:30pm 19.4 WNW 3 5 1014.9 - 0.0 - - - - - - -
30/05:00pm 20.0 NW 3 4 1014.6 - 0.0 - - - - - - -
30/04:30pm 19.9 S 4 5 1014.6 - 0.0 - - - - - - -
30/04:00pm 20.3 S 5 7 1014.6 - 0.0 - - - - - - -
30/03:30pm 20.5 S 7 9 1014.7 - 0.0 - - - - - - -
30/03:00pm 20.1 SSW 8 11 1015.1 - 0.0 - - - - - - -
30/02:30pm 20.1 SSW 8 12 1015.4 - 0.0 - - - - - - -
30/02:00pm 19.6 SSW 8 11 1015.7 - 0.0 - - - - - - -
30/01:30pm 19.8 SSW 8 12 1015.9 - 0.0 - - - - - - -
30/01:00pm 19.8 SSW 9 13 1016.0 - 0.0 - - - - - - -
30/12:30pm 19.2 SSW 8 12 1016.2 - 0.0 - - - - - - -
30/12:00pm 19.7 SSW 11 16 1016.5 - 0.0 - - - - - - -
30/11:30am 19.7 SSW 10 16 1017.3 - 0.0 - - - - - - -
30/11:00am 20.8 SSW 10 16 1017.3 - 0.0 - - - - - - -
30/10:00am 19.5 S 7 11 1017.6 - 0.0 - - - - - - -
30/09:00am 19.5 SSW 5 7 1018.3 - 0.0 - - - - - - -
30/08:30am 19.3 S 4 6 1017.9 - 0.0 - - - - - - -
30/08:00am 19.3 SSW 6 9 1018.1 - 0.0 - - - - - - -
30/07:30am 18.9 S 8 11 1017.9 - 0.0 - - - - - - -
30/07:00am 18.8 S 9 12 1017.5 - 0.0 - - - - - - -
30/06:00am 18.6 S 7 10 1016.7 - 0.0 - - - - - - -
30/05:30am 18.7 S 7 11 1016.7 - 0.0 - - - - - - -
30/05:00am 18.7 S 7 10 1017.0 - 0.0 - - - - - - -
30/04:00am 18.5 S 10 14 1016.8 - 0.0 - - - - - - -
30/03:30am 18.7 S 11 16 1016.9 - 0.0 - - - - - - -
30/03:00am 18.9 S 12 16 1017.3 - 0.0 - - - - - - -
30/02:30am 18.8 S 12 17 1017.4 - 0.0 - - - - - - -
30/02:00am 18.7 S 14 20 1017.5 - 0.0 - - - - - - -
30/01:30am 18.8 S 15 21 1017.8 - 0.0 - - - - - - -
30/01:00am 19.4 S 14 20 1018.2 - 0.0 - - - - - - -
30/12:30am 19.6 S 12 18 1018.5 - 0.0 - - - - - - -
30/12:00am 19.6 S 14 18 1018.9 - 0.0 - - - - - - -
 
Date/Time
EST
Temp

°C
Wind Pressure Rain
since 9am
mm
Weather Cloud Vis
km
Sea
Height
m
Swell
Dir
 
Speed
knots
Gust
knots
hPa Trend Height
m
Period
s
Dir
29/10:00pm 18.1 CALM 0 0 1018.8 - 0.0 - - - - - - -
29/09:30pm 18.3 CALM 0 0 1018.8 - 0.0 - - - - - - -
29/08:30pm 20.3 ENE 3 4 1018.8 - 0.0 - - - - - - -
29/08:00pm 20.6 E 4 5 1019.0 - 0.0 - - - - - - -
29/07:30pm 20.7 ENE 3 5 1018.5 - 0.0 - - - - - - -
29/07:00pm 20.6 ENE 3 5 1018.2 - 0.0 - - - - - - -
29/06:30pm 20.8 NE 2 5 1018.1 - 0.0 - - - - - - -
29/06:00pm 21.1 ENE 5 7 1017.6 - 0.0 - - - - - - -
29/05:00pm 22.0 E 7 8 1017.2 - 0.0 - - - - - - -
29/04:30pm 22.5 E 6 7 1017.6 - 0.0 - - - - - - -
29/04:00pm 23.0 E 6 7 1017.7 - 0.0 - - - - - - -
29/03:30pm 23.2 ESE 6 7 1017.9 - 0.0 - - - - - - -
29/03:00pm 23.4 ESE 7 9 1018.1 - 0.0 - - - - - - -
29/02:30pm 23.5 ESE 7 8 1018.4 - 0.0 - - - - - - -
29/01:30pm 23.4 ESE 8 11 1019.0 - 0.0 - - - - - - -
29/01:00pm 23.2 SE 9 11 1019.5 - 0.0 - - - - - - -
29/12:30pm 22.7 SE 8 11 1020.0 - 0.0 - - - - - - -
29/12:00pm 22.4 SSE 8 10 1020.5 - 0.0 - - - - - - -
29/11:30am 22.7 SE 7 10 1021.1 - 0.0 - - - - - - -
29/11:00am 23.4 SE 9 10 1021.4 - 0.0 - - - - - - -
29/10:30am 22.9 SE 9 11 1021.4 - 0.0 - - - - - - -
29/10:00am 23.0 SE 8 10 1021.6 - 0.0 - - - - - - -
29/09:30am 22.9 SE 8 11 1021.6 - 0.0 - - - - - - -
29/09:00am 23.0 ESE 9 11 1021.6 - 0.0 - - - - - - -
29/08:30am 22.1 SE 9 12 1021.3 - 0.0 - - - - - - -
29/08:00am 21.5 SE 6 8 1021.1 - 0.0 - - - - - - -
29/07:30am 21.1 SE 6 8 1021.0 - 0.0 - - - - - - -
29/05:00am 17.3 CALM 0 0 1019.6 - 0.0 - - - - - - -
29/04:30am 17.9 CALM 0 0 1019.4 - 0.0 - - - - - - -
29/04:00am 17.8 CALM 0 0 1019.7 - 0.0 - - - - - - -
29/03:30am 18.2 CALM 0 0 1019.5 - 0.0 - - - - - - -
29/03:00am 17.8 CALM 0 0 1019.9 - 0.0 - - - - - - -
29/02:30am 18.0 CALM 0 0 1020.2 - 0.0 - - - - - - -
29/02:00am 18.7 CALM 0 0 1020.3 - 0.0 - - - - - - -
29/01:30am 19.8 CALM 0 0 1020.5 - 0.0 - - - - - - -
29/01:00am 20.4 N 2 4 1020.8 - 0.0 - - - - - - -
29/12:30am 19.0 N 2 4 1020.9 - 0.0 - - - - - - -
29/12:00am 18.9 CALM 0 0 1020.9 - 0.0 - - - - - - -
 
Date/Time
EST
Temp

°C
Wind Pressure Rain
since 9am
mm
Weather Cloud Vis
km
Sea
Height
m
Swell
Dir
 
Speed
knots
Gust
knots
hPa Trend Height
m
Period
s
Dir
28/11:30pm 19.3 CALM 0 0 1020.6 - 0.0 - - - - - - -
28/11:00pm 20.7 N 3 4 1020.7 - 0.0 - - - - - - -
28/10:30pm 20.7 N 4 6 1020.6 - 0.0 - - - - - - -
28/10:00pm 20.2 NNE 4 5 1020.4 - 0.0 - - - - - - -
28/09:30pm 19.2 CALM 0 3 1020.6 - 0.0 - - - - - - -
28/09:00pm 19.4 N 3 4 1020.8 - 0.0 - - - - - - -
28/08:00pm 18.8 CALM 0 0 1020.6 - 0.0 - - - - - - -
28/07:30pm 19.5 N 2 3 1020.3 - 0.0 - - - - - - -
28/07:00pm 20.5 N 3 4 1020.0 - 0.0 - - - - - - -
28/06:30pm 20.9 N 1 4 1019.5 - 0.0 - - - - - - -
28/06:00pm 21.5 NNE 2 5 1018.8 - 0.0 - - - - - - -
28/05:30pm 21.9 NNE 4 7 1018.4 - 0.0 - - - - - - -
28/05:00pm 22.6 NNE 3 7 1018.2 - 0.0 - - - - - - -
28/04:30pm 23.2 NE 5 7 1018.1 - 0.0 - - - - - - -
28/04:00pm 23.5 NE 4 7 1018.2 - 0.0 - - - - - - -
28/03:30pm 23.6 ENE 4 6 1018.2 - 0.0 - - - - - - -
28/03:00pm 23.7 E 4 5 1018.4 - 0.0 - - - - - - -
28/02:30pm 23.5 SSE 4 5 1018.8 - 0.0 - - - - - - -
28/02:00pm 22.5 SSE 3 6 1018.9 - 0.0 - - - - - - -
28/01:30pm 23.2 SSE 5 6 1019.2 - 0.0 - - - - - - -
28/01:00pm 24.2 S 5 8 1019.6 - 0.0 - - - - - - -

Other Formats:

Comma delimited format used in spreadsheet applications
http://www.bom.gov.au/fwo/IDQ60701/IDQ60701.94388.axf

JavaScript Object Notation format (JSON) in row-major order
http://www.bom.gov.au/fwo/IDQ60701/IDQ60701.94388.json